createdAt,value
2023-04-19T00:02:09.034Z,10.88
2023-04-19T00:04:39.540Z,10.82
2023-04-19T00:07:07.878Z,10.82
2023-04-19T00:09:36.056Z,10.78
2023-04-19T00:12:04.474Z,10.76
2023-04-19T00:14:32.772Z,10.70
2023-04-19T00:17:01.001Z,10.70
2023-04-19T00:19:29.482Z,10.67
2023-04-19T00:21:59.122Z,10.63
2023-04-19T00:24:27.373Z,10.63
2023-04-19T00:26:55.662Z,10.61
2023-04-19T00:29:23.971Z,10.60
2023-04-19T00:31:53.193Z,10.54
2023-04-19T00:34:21.671Z,10.51
2023-04-19T00:36:49.820Z,10.46
2023-04-19T00:39:19.599Z,10.50
2023-04-19T00:41:47.843Z,10.47
2023-04-19T00:44:16.242Z,10.44
2023-04-19T00:46:45.548Z,10.40
2023-04-19T00:49:14.146Z,10.39
2023-04-19T00:51:42.606Z,10.36
2023-04-19T00:54:11.170Z,10.38
2023-04-19T00:56:41.571Z,10.35
2023-04-19T00:59:10.854Z,10.32
2023-04-19T01:01:39.556Z,10.32
2023-04-19T01:04:11.476Z,10.35
2023-04-19T01:06:41.576Z,10.31
2023-04-19T01:09:09.855Z,10.31
2023-04-19T01:11:38.183Z,10.29
2023-04-19T01:14:07.759Z,10.27
2023-04-19T01:16:36.413Z,10.26
2023-04-19T01:19:04.652Z,10.26
2023-04-19T01:21:33.257Z,10.22
2023-04-19T01:24:02.770Z,10.24
2023-04-19T01:26:31.004Z,10.21
2023-04-19T01:28:59.216Z,10.20
2023-04-19T01:31:27.601Z,10.23
2023-04-19T01:33:56.073Z,10.14
2023-04-19T01:36:24.323Z,10.17
2023-04-19T01:38:52.529Z,10.15
2023-04-19T01:41:23.072Z,10.17
2023-04-19T01:43:51.249Z,10.18
2023-04-19T01:46:19.594Z,10.14
2023-04-19T01:48:47.826Z,10.15
2023-04-19T01:51:17.498Z,10.05
2023-04-19T01:53:45.685Z,9.98
2023-04-19T01:56:13.921Z,9.88
2023-04-19T01:58:43.808Z,9.87
2023-04-19T02:01:13.269Z,9.91
2023-04-19T02:03:42.218Z,9.88
2023-04-19T02:06:13.020Z,9.87
2023-04-19T02:08:41.683Z,9.90
2023-04-19T02:11:10.564Z,9.95
2023-04-19T02:13:38.916Z,9.91
2023-04-19T02:16:09.394Z,9.88
2023-04-19T02:18:38.554Z,9.86
2023-04-19T02:21:07.730Z,9.79
2023-04-19T02:23:36.231Z,9.83
2023-04-19T02:26:04.503Z,9.86
2023-04-19T02:28:33.394Z,9.85
2023-04-19T02:31:06.342Z,9.85
2023-04-19T02:33:36.583Z,9.85
2023-04-19T02:36:05.132Z,9.87
2023-04-19T02:38:33.560Z,9.79
2023-04-19T02:41:04.434Z,9.77
2023-04-19T02:43:33.001Z,9.73
2023-04-19T02:46:01.370Z,9.77
2023-04-19T02:48:29.621Z,9.75
2023-04-19T02:50:59.758Z,9.76
2023-04-19T02:53:28.619Z,9.70
2023-04-19T02:55:56.764Z,9.76
2023-04-19T02:58:25.053Z,9.78
2023-04-19T03:00:53.250Z,9.66
2023-04-19T03:03:21.757Z,9.71
2023-04-19T03:05:49.939Z,9.70
2023-04-19T03:08:19.536Z,9.55
2023-04-19T03:10:47.765Z,9.50
2023-04-19T03:13:15.951Z,9.48
2023-04-19T03:15:44.302Z,9.55
2023-04-19T03:18:12.456Z,9.61
2023-04-19T03:20:40.727Z,9.59
2023-04-19T03:23:09.082Z,9.51
2023-04-19T03:25:38.865Z,9.47
2023-04-19T03:28:07.000Z,9.47
2023-04-19T03:30:35.401Z,9.50
2023-04-19T03:33:03.646Z,9.44
2023-04-19T03:35:32.628Z,9.49
2023-04-19T03:38:01.530Z,9.52
2023-04-19T03:40:29.815Z,9.51
2023-04-19T03:42:59.523Z,9.56
2023-04-19T03:45:27.725Z,9.59
2023-04-19T03:47:55.920Z,9.52
2023-04-19T03:50:24.465Z,9.62
2023-04-19T03:52:52.618Z,9.60
2023-04-19T03:55:20.895Z,9.66
2023-04-19T03:57:49.052Z,9.65
2023-04-19T04:00:19.353Z,9.66
2023-04-19T04:02:47.875Z,9.68
2023-04-19T04:05:16.864Z,9.68
2023-04-19T04:07:45.165Z,9.65
2023-04-19T04:10:16.399Z,9.69
2023-04-19T04:12:44.569Z,9.71
2023-04-19T04:15:13.073Z,9.76
2023-04-19T04:17:42.745Z,9.73
2023-04-19T04:20:13.606Z,9.66
2023-04-19T04:22:44.261Z,9.73
2023-04-19T04:25:16.983Z,9.80
2023-04-19T04:27:45.304Z,9.80
2023-04-19T04:30:14.078Z,9.88
2023-04-19T04:32:45.096Z,9.89
2023-04-19T04:35:13.326Z,9.77
2023-04-19T04:37:41.602Z,9.81
2023-04-19T04:40:16.590Z,9.77
2023-04-19T04:42:45.648Z,9.77
2023-04-19T04:45:13.880Z,9.70
2023-04-19T04:47:43.593Z,9.62
2023-04-19T04:50:12.735Z,9.59
2023-04-19T04:52:40.947Z,9.58
2023-04-19T04:55:12.119Z,9.58
2023-04-19T04:57:40.402Z,9.62
2023-04-19T05:00:10.881Z,9.60
2023-04-19T05:02:39.222Z,9.59
2023-04-19T05:05:15.610Z,9.62
2023-04-19T05:07:44.127Z,9.66
2023-04-19T05:10:12.484Z,9.72
2023-04-19T05:12:40.775Z,9.70
2023-04-19T05:15:13.184Z,9.66
2023-04-19T05:17:43.202Z,9.64
2023-04-19T05:20:12.784Z,9.68
2023-04-19T05:22:42.506Z,9.68
2023-04-19T05:25:12.056Z,9.66
2023-04-19T05:27:40.219Z,9.72
2023-04-19T05:30:09.343Z,9.72
2023-04-19T05:32:37.607Z,9.72
2023-04-19T05:35:06.265Z,9.75
2023-04-19T05:37:34.517Z,9.74
2023-04-19T05:40:05.990Z,9.68
2023-04-19T05:42:35.270Z,9.66
2023-04-19T05:45:05.851Z,9.67
2023-04-19T05:47:35.542Z,9.64
2023-04-19T05:50:03.941Z,9.66
2023-04-19T05:52:32.076Z,9.70
2023-04-19T05:55:00.653Z,9.72
2023-04-19T05:57:31.906Z,9.76
2023-04-19T06:02:34.034Z,9.77
2023-04-19T06:05:09.854Z,9.79
2023-04-19T06:07:43.180Z,9.80
2023-04-19T06:10:18.879Z,9.80
2023-04-19T06:12:48.697Z,9.80
2023-04-19T06:15:16.856Z,9.76
2023-04-19T06:17:45.260Z,9.70
2023-04-19T06:20:14.286Z,9.67
2023-04-19T06:22:46.990Z,9.73
2023-04-19T06:25:15.213Z,9.67
2023-04-19T06:27:43.506Z,9.69
2023-04-19T06:30:13.944Z,9.74
2023-04-19T06:32:42.268Z,9.75
2023-04-19T06:35:11.068Z,9.71
2023-04-19T06:37:39.490Z,9.72
2023-04-19T06:40:09.611Z,9.70
2023-04-19T06:42:37.892Z,9.72
2023-04-19T06:45:07.265Z,9.74
2023-04-19T06:47:36.962Z,9.76
2023-04-19T06:50:06.021Z,9.75
2023-04-19T06:52:34.287Z,9.73
2023-04-19T06:55:02.402Z,9.77
2023-04-19T06:57:34.400Z,9.79
2023-04-19T07:00:02.747Z,9.78
2023-04-19T07:02:31.097Z,9.85
2023-04-19T07:05:01.093Z,9.88
2023-04-19T07:07:29.967Z,9.92
2023-04-19T07:09:58.064Z,9.92
2023-04-19T07:12:26.293Z,9.93
2023-04-19T07:14:57.371Z,9.89
2023-04-19T07:17:25.817Z,9.91
2023-04-19T07:19:54.052Z,9.97
2023-04-19T07:22:23.789Z,9.99
2023-04-19T07:24:52.361Z,9.96
2023-04-19T07:27:20.634Z,9.91
2023-04-19T07:29:48.914Z,9.90
2023-04-19T07:32:17.121Z,9.86
2023-04-19T07:34:46.322Z,9.87
2023-04-19T07:37:14.678Z,9.86
2023-04-19T07:39:44.676Z,9.89
2023-04-19T07:42:12.798Z,9.97
2023-04-19T07:44:41.066Z,9.94
2023-04-19T07:47:09.228Z,10.02
2023-04-19T07:49:37.915Z,10.07
2023-04-19T07:52:08.958Z,10.06
2023-04-19T07:54:39.287Z,10.10
2023-04-19T07:57:09.098Z,10.14
2023-04-19T07:59:37.275Z,10.19
2023-04-19T08:02:05.805Z,10.24
2023-04-19T08:04:34.796Z,10.23
2023-04-19T08:07:04.303Z,10.21
2023-04-19T08:09:34.623Z,10.23
2023-04-19T08:12:02.721Z,10.29
2023-04-19T08:14:43.835Z,10.38
2023-04-19T08:19:49.534Z,10.45
2023-04-19T08:22:18.328Z,10.46
2023-04-19T08:24:46.551Z,10.38
2023-04-19T08:27:14.808Z,10.35
2023-04-19T08:29:44.522Z,10.32
2023-04-19T08:32:12.988Z,10.34
2023-04-19T08:34:41.498Z,10.37
2023-04-19T08:37:09.563Z,10.38
2023-04-19T08:39:39.035Z,10.43
2023-04-19T08:42:18.241Z,10.43
2023-04-19T08:45:25.411Z,10.44
2023-04-19T08:47:59.988Z,10.51
2023-04-19T08:53:15.720Z,10.65
2023-04-19T08:56:08.572Z,10.72
2023-04-19T08:58:57.722Z,10.80
2023-04-19T09:01:34.896Z,10.79
2023-04-19T09:04:26.446Z,10.67
2023-04-19T09:06:54.201Z,10.65
2023-04-19T09:09:35.433Z,10.69
2023-04-19T09:12:18.156Z,10.71
2023-04-19T09:17:21.117Z,10.71
2023-04-19T09:19:50.543Z,10.71
2023-04-19T09:22:18.958Z,10.67
2023-04-19T09:27:27.705Z,10.69
2023-04-19T09:29:56.450Z,10.67
2023-04-19T09:32:27.226Z,10.69
2023-04-19T09:34:59.826Z,10.71
2023-04-19T09:39:59.905Z,10.81
2023-04-19T09:43:06.930Z,10.81
2023-04-19T09:45:44.141Z,10.82
2023-04-19T09:48:14.688Z,10.83
2023-04-19T09:50:58.975Z,10.89
2023-04-19T09:53:30.578Z,10.91
2023-04-19T09:56:02.120Z,10.94
2023-04-19T10:01:14.092Z,10.94
2023-04-19T10:03:47.126Z,10.88
2023-04-19T10:08:51.702Z,10.89
2023-04-19T10:11:23.004Z,10.84
2023-04-19T10:13:55.043Z,10.90
2023-04-19T10:16:23.172Z,10.77
2023-04-19T10:18:54.204Z,10.79
2023-04-19T10:21:23.308Z,10.80
2023-04-19T10:23:51.981Z,10.84
2023-04-19T10:26:20.178Z,10.87
2023-04-19T10:28:51.654Z,10.89
2023-04-19T10:31:23.851Z,10.90
2023-04-19T10:33:53.932Z,10.87
2023-04-19T10:36:23.526Z,10.84
2023-04-19T10:38:53.732Z,10.87
2023-04-19T10:41:22.952Z,10.87
2023-04-19T10:44:13.049Z,10.96
2023-04-19T10:46:41.980Z,10.97
2023-04-19T10:49:13.605Z,11.00
2023-04-19T10:51:44.435Z,11.05
2023-04-19T10:54:31.660Z,11.14
2023-04-19T10:57:05.233Z,11.12
2023-04-19T10:59:35.399Z,11.14
2023-04-19T11:02:05.390Z,11.18
2023-04-19T11:05:04.323Z,11.17
2023-04-19T11:07:43.090Z,11.24
2023-04-19T11:10:12.764Z,11.25
2023-04-19T11:12:45.228Z,11.23
2023-04-19T11:15:13.510Z,11.29
2023-04-19T11:17:42.830Z,11.26
2023-04-19T11:20:14.753Z,11.27
2023-04-19T11:22:46.450Z,11.30
2023-04-19T11:25:18.299Z,11.37
2023-04-19T11:27:48.295Z,11.37
2023-04-19T11:30:19.761Z,11.46
2023-04-19T11:32:49.122Z,11.46
2023-04-19T11:35:21.057Z,11.48
2023-04-19T11:37:49.244Z,11.52
2023-04-19T11:40:18.831Z,11.58
2023-04-19T11:42:47.418Z,11.60
2023-04-19T11:45:31.232Z,11.61
2023-04-19T11:48:01.934Z,11.65
2023-04-19T11:50:36.299Z,11.63
2023-04-19T11:53:26.730Z,11.58
2023-04-19T11:55:57.601Z,11.60
2023-04-19T11:58:29.627Z,11.65
2023-04-19T12:01:00.401Z,11.71
2023-04-19T12:03:28.716Z,11.73
2023-04-19T12:06:03.619Z,11.80
2023-04-19T12:08:33.688Z,11.86
2023-04-19T12:11:03.610Z,11.90
2023-04-19T12:13:32.545Z,11.88
2023-04-19T12:16:01.761Z,11.82
2023-04-19T12:18:43.366Z,11.79
2023-04-19T12:21:14.162Z,11.69
2023-04-19T12:23:42.381Z,11.73
2023-04-19T12:26:11.694Z,11.78
2023-04-19T12:28:40.023Z,11.84
2023-04-19T12:31:08.163Z,11.80
2023-04-19T12:33:36.629Z,11.83
2023-04-19T12:36:05.091Z,11.88
2023-04-19T12:38:34.666Z,11.83
2023-04-19T12:41:03.118Z,11.80
2023-04-19T12:43:32.082Z,11.70
2023-04-19T12:46:00.594Z,11.66
2023-04-19T12:48:32.582Z,11.65
2023-04-19T12:51:01.340Z,11.71
2023-04-19T12:53:29.975Z,11.88
2023-04-19T12:56:00.137Z,11.87
2023-04-19T12:58:28.420Z,11.81
2023-04-19T13:00:56.615Z,11.87
2023-04-19T13:03:25.060Z,11.98
2023-04-19T13:05:53.427Z,12.30
2023-04-19T13:08:33.824Z,12.44
2023-04-19T13:11:11.010Z,12.65
2023-04-19T13:13:39.177Z,12.78
2023-04-19T13:16:08.275Z,12.97
2023-04-19T13:18:36.702Z,13.12
2023-04-19T13:21:07.325Z,13.21
2023-04-19T13:23:36.302Z,13.35
2023-04-19T13:26:04.698Z,13.39
2023-04-19T13:28:36.822Z,13.52
2023-04-19T13:31:06.004Z,13.61
2023-04-19T13:33:34.379Z,13.61
2023-04-19T13:36:02.599Z,13.62
2023-04-19T13:38:30.940Z,13.68
2023-04-19T13:40:59.094Z,13.87
2023-04-19T13:43:27.229Z,14.00
2023-04-19T13:45:56.888Z,14.02
2023-04-19T13:48:27.515Z,13.84
2023-04-19T13:50:56.172Z,13.58
2023-04-19T13:53:25.313Z,13.34
2023-04-19T13:55:53.573Z,13.09
2023-04-19T13:58:21.856Z,12.99
2023-04-19T14:00:50.030Z,12.87
2023-04-19T14:03:19.699Z,12.70
2023-04-19T14:05:47.993Z,12.82
2023-04-19T14:08:16.507Z,12.89
2023-04-19T14:10:44.711Z,12.88
2023-04-19T14:13:12.937Z,12.81
2023-04-19T14:15:42.106Z,12.84
2023-04-19T14:18:12.537Z,12.79
2023-04-19T14:20:42.312Z,12.66
2023-04-19T14:23:10.448Z,12.57
2023-04-19T14:25:38.665Z,12.48
2023-04-19T14:28:06.969Z,12.51
2023-04-19T14:30:35.320Z,12.46
2023-04-19T14:33:03.500Z,12.48
2023-04-19T14:35:31.830Z,12.48
2023-04-19T14:38:01.484Z,12.42
2023-04-19T14:40:30.139Z,12.40
2023-04-19T14:42:58.364Z,12.43
2023-04-19T14:45:27.715Z,12.38
2023-04-19T14:47:56.280Z,12.41
2023-04-19T14:50:24.828Z,12.36
2023-04-19T14:52:54.809Z,12.35
2023-04-19T14:55:25.077Z,12.34
2023-04-19T14:57:53.389Z,12.38
2023-04-19T15:00:21.985Z,12.41
2023-04-19T15:02:50.337Z,12.45
2023-04-19T15:05:19.158Z,12.48
2023-04-19T15:07:47.423Z,12.51
2023-04-19T15:10:15.746Z,12.57
2023-04-19T15:12:45.354Z,12.59
2023-04-19T15:15:13.618Z,12.61
2023-04-19T15:17:42.021Z,12.63
2023-04-19T15:20:11.376Z,12.72
2023-04-19T15:22:39.582Z,12.80
2023-04-19T15:25:08.600Z,12.82
2023-04-19T15:27:36.926Z,12.82
2023-04-19T15:30:07.674Z,12.83
2023-04-19T15:32:38.712Z,12.83
2023-04-19T15:35:07.617Z,12.76
2023-04-19T15:37:35.899Z,12.76
2023-04-19T15:40:04.396Z,12.74
2023-04-19T15:42:32.465Z,12.73
2023-04-19T15:45:00.680Z,12.73
2023-04-19T15:47:31.049Z,12.68
2023-04-19T15:49:59.266Z,12.69
2023-04-19T15:52:27.438Z,12.75
2023-04-19T15:54:55.670Z,12.79
2023-04-19T15:57:23.876Z,12.82
2023-04-19T15:59:52.439Z,12.78
2023-04-19T16:02:21.024Z,12.72
2023-04-19T16:04:51.777Z,12.70
2023-04-19T16:07:20.140Z,12.69
2023-04-19T16:09:48.289Z,12.60
2023-04-19T16:12:16.471Z,12.61
2023-04-19T16:14:44.637Z,12.68
2023-04-19T16:17:12.805Z,12.71
2023-04-19T16:19:40.880Z,12.73
2023-04-19T16:22:10.791Z,12.76
2023-04-19T16:24:38.946Z,12.74
2023-04-19T16:27:07.114Z,12.77
2023-04-19T16:29:35.607Z,12.74
2023-04-19T16:32:04.202Z,12.74
2023-04-19T16:34:32.457Z,12.68
2023-04-19T16:37:01.014Z,12.63
2023-04-19T16:39:30.723Z,12.63
2023-04-19T16:41:58.905Z,12.66
2023-04-19T16:44:27.098Z,12.63
2023-04-19T16:46:55.407Z,12.61
2023-04-19T16:49:23.639Z,12.58
2023-04-19T16:51:51.701Z,12.54
2023-04-19T16:54:20.024Z,12.54
2023-04-19T16:56:51.843Z,12.50
2023-04-19T16:59:20.029Z,12.46
2023-04-19T17:01:48.276Z,12.48
2023-04-19T17:04:16.625Z,12.48
2023-04-19T17:06:45.844Z,12.47
2023-04-19T17:09:14.140Z,12.35
2023-04-19T17:11:42.385Z,12.33
2023-04-19T17:14:12.107Z,12.33
2023-04-19T17:16:41.093Z,12.37
2023-04-19T17:19:09.370Z,12.36
2023-04-19T17:21:37.745Z,12.37
2023-04-19T17:24:10.644Z,12.33
2023-04-19T17:26:39.049Z,12.34
2023-04-19T17:29:07.317Z,12.35
2023-04-19T17:31:37.086Z,12.36
2023-04-19T17:34:05.462Z,12.42
2023-04-19T17:36:33.960Z,12.47
2023-04-19T17:39:02.266Z,12.41
2023-04-19T17:41:30.552Z,12.40
2023-04-19T17:43:58.655Z,12.42
2023-04-19T17:46:26.863Z,12.44
2023-04-19T17:48:56.960Z,12.44
2023-04-19T17:51:25.338Z,12.43
2023-04-19T17:53:53.559Z,12.39
2023-04-19T17:56:21.778Z,12.47
2023-04-19T17:58:49.890Z,12.50
2023-04-19T18:01:18.208Z,12.52
2023-04-19T18:03:46.573Z,12.48
2023-04-19T18:06:16.750Z,12.47
2023-04-19T18:08:46.087Z,12.45
2023-04-19T18:11:15.197Z,12.42
2023-04-19T18:13:43.414Z,12.44
2023-04-19T18:16:11.843Z,12.38
2023-04-19T18:18:40.785Z,12.38
2023-04-19T18:21:09.861Z,12.38
2023-04-19T18:23:39.470Z,12.40
2023-04-19T18:26:07.843Z,12.41
2023-04-19T18:28:37.532Z,12.39
2023-04-19T18:31:06.944Z,12.42
2023-04-19T18:33:35.565Z,12.38
2023-04-19T18:36:03.761Z,12.41
2023-04-19T18:38:32.117Z,12.39
2023-04-19T18:41:01.716Z,12.39
2023-04-19T18:43:30.927Z,12.36
2023-04-19T18:46:00.333Z,12.36
2023-04-19T18:48:29.549Z,12.37
2023-04-19T18:50:59.625Z,12.37
2023-04-19T18:53:29.659Z,12.36
2023-04-19T18:55:58.679Z,12.35
2023-04-19T18:58:29.579Z,12.34
2023-04-19T19:00:58.253Z,12.38
2023-04-19T19:05:58.651Z,12.35
2023-04-19T19:08:27.298Z,12.37
2023-04-19T19:13:28.163Z,12.34
2023-04-19T19:15:56.557Z,12.35
2023-04-19T19:18:25.083Z,12.33
2023-04-19T19:20:53.764Z,12.31
2023-04-19T19:23:35.504Z,12.27
2023-04-19T19:26:07.159Z,12.25
2023-04-19T19:28:36.840Z,12.23
2023-04-19T19:31:05.156Z,12.21
2023-04-19T19:33:33.591Z,12.17
2023-04-19T19:36:01.755Z,12.19
2023-04-19T19:38:31.737Z,12.19
2023-04-19T19:41:37.040Z,12.19
2023-04-19T19:43:49.369Z,12.18
2023-04-19T19:46:17.685Z,12.14
2023-04-19T19:48:51.971Z,12.11
2023-04-19T19:51:52.090Z,12.11
2023-04-19T19:54:10.147Z,12.11
2023-04-19T19:56:49.614Z,12.12
2023-04-19T19:59:29.904Z,12.10
2023-04-19T20:02:02.122Z,12.09
2023-04-19T20:04:31.177Z,12.06
2023-04-19T20:09:30.683Z,12.07
2023-04-19T20:11:59.928Z,12.04
2023-04-19T20:14:29.967Z,12.01
2023-04-19T20:17:01.100Z,11.98
2023-04-19T20:19:29.586Z,11.97
2023-04-19T20:21:59.116Z,11.97
2023-04-19T20:24:27.333Z,11.94
2023-04-19T20:26:55.513Z,11.95
2023-04-19T20:29:23.809Z,11.90
2023-04-19T20:31:53.490Z,11.86
2023-04-19T20:34:21.827Z,11.87
2023-04-19T20:36:50.334Z,11.84
2023-04-19T20:39:19.350Z,11.82
2023-04-19T20:41:48.714Z,11.81
2023-04-19T20:44:18.418Z,11.83
2023-04-19T20:46:47.308Z,11.80
2023-04-19T20:49:17.283Z,11.80
2023-04-19T20:51:46.684Z,11.78
2023-04-19T20:54:14.793Z,11.76
2023-04-19T20:56:43.025Z,11.76
2023-04-19T20:59:11.240Z,11.74
2023-04-19T21:01:39.408Z,11.72
2023-04-19T21:04:08.796Z,11.70
2023-04-19T21:06:38.690Z,11.74
2023-04-19T21:09:06.889Z,11.73
2023-04-19T21:11:35.182Z,11.69
2023-04-19T21:14:03.425Z,11.71
2023-04-19T21:16:31.920Z,11.70
2023-04-19T21:19:01.005Z,11.71
2023-04-19T21:21:30.508Z,11.68
2023-04-19T21:24:01.361Z,11.66
2023-04-19T21:26:29.681Z,11.67
2023-04-19T21:28:57.949Z,11.66
2023-04-19T21:31:26.151Z,11.67
2023-04-19T21:33:54.428Z,11.67
2023-04-19T21:36:22.661Z,11.64
2023-04-19T21:38:50.939Z,11.65
2023-04-19T21:41:20.761Z,11.55
2023-04-19T21:43:49.030Z,11.58
2023-04-19T21:46:17.219Z,11.58
2023-04-19T21:48:45.441Z,11.54
2023-04-19T21:51:14.525Z,11.51
2023-04-19T21:53:42.689Z,11.50
2023-04-19T21:56:10.879Z,11.48
2023-04-19T21:58:40.683Z,11.47
2023-04-19T22:01:08.868Z,11.49
2023-04-19T22:03:37.596Z,11.48
2023-04-19T22:06:06.860Z,11.46
2023-04-19T22:08:35.611Z,11.46
2023-04-19T22:11:03.842Z,11.44
2023-04-19T22:13:33.569Z,11.47
2023-04-19T22:16:03.356Z,11.42
2023-04-19T22:18:34.271Z,11.43
2023-04-19T22:21:02.499Z,11.37
2023-04-19T22:23:30.813Z,11.38
2023-04-19T22:26:00.225Z,11.36
2023-04-19T22:28:28.472Z,11.35
2023-04-19T22:30:56.745Z,11.33
2023-04-19T22:33:26.366Z,11.32
2023-04-19T22:35:54.873Z,11.35
2023-04-19T22:38:23.137Z,11.30
2023-04-19T22:40:51.402Z,11.28
2023-04-19T22:43:19.664Z,11.28
2023-04-19T22:45:48.232Z,11.23
2023-04-19T22:48:17.062Z,11.23
2023-04-19T22:50:48.143Z,11.15
2023-04-19T22:53:16.321Z,11.10
2023-04-19T22:55:44.449Z,11.10
2023-04-19T22:58:12.642Z,11.08
2023-04-19T23:00:41.015Z,11.08
2023-04-19T23:03:09.369Z,11.03
2023-04-19T23:05:37.540Z,11.04
2023-04-19T23:08:07.547Z,11.03
2023-04-19T23:10:38.160Z,11.00
2023-04-19T23:13:06.943Z,10.95
2023-04-19T23:15:35.313Z,10.94
2023-04-19T23:18:04.060Z,10.93
2023-04-19T23:20:32.229Z,10.93
2023-04-19T23:23:00.692Z,10.87
2023-04-19T23:25:30.386Z,10.87
2023-04-19T23:27:58.683Z,10.90
2023-04-19T23:30:27.049Z,10.87
2023-04-19T23:32:55.511Z,10.87
2023-04-19T23:35:24.039Z,10.85
2023-04-19T23:37:52.586Z,10.80
2023-04-19T23:40:22.193Z,10.78
2023-04-19T23:42:51.804Z,10.79
2023-04-19T23:45:19.993Z,10.71
2023-04-19T23:47:48.191Z,10.66
2023-04-19T23:50:16.540Z,10.57
2023-04-19T23:52:44.865Z,10.52
2023-04-19T23:55:13.165Z,10.51
2023-04-19T23:57:41.767Z,10.49
